sensor_id;sensor_type;location;lat;lon;timestamp;P1;durP1;ratioP1;P2;durP2;ratioP2
12725;SDS011;6427;49.754;6.106;2022-08-19T00:01:22;15.13;;;13.02;;
12725;SDS011;6427;49.754;6.106;2022-08-19T00:03:50;14.85;;;13.32;;
12725;SDS011;6427;49.754;6.106;2022-08-19T00:06:17;15.57;;;11.60;;
12725;SDS011;6427;49.754;6.106;2022-08-19T00:08:45;14.50;;;12.45;;
12725;SDS011;6427;49.754;6.106;2022-08-19T00:11:13;12.80;;;11.03;;
12725;SDS011;6427;49.754;6.106;2022-08-19T00:13:41;13.43;;;11.03;;
12725;SDS011;6427;49.754;6.106;2022-08-19T00:16:09;14.53;;;11.63;;
12725;SDS011;6427;49.754;6.106;2022-08-19T00:18:37;14.07;;;11.10;;
12725;SDS011;6427;49.754;6.106;2022-08-19T00:21:05;12.67;;;11.23;;
12725;SDS011;6427;49.754;6.106;2022-08-19T00:23:32;15.57;;;11.40;;
12725;SDS011;6427;49.754;6.106;2022-08-19T00:26:00;18.13;;;11.00;;
12725;SDS011;6427;49.754;6.106;2022-08-19T00:28:27;14.13;;;11.27;;
12725;SDS011;6427;49.754;6.106;2022-08-19T00:30:55;14.27;;;11.90;;
12725;SDS011;6427;49.754;6.106;2022-08-19T00:33:23;13.93;;;12.52;;
12725;SDS011;6427;49.754;6.106;2022-08-19T00:35:50;13.57;;;11.80;;
12725;SDS011;6427;49.754;6.106;2022-08-19T00:38:18;10.97;;;9.70;;
12725;SDS011;6427;49.754;6.106;2022-08-19T00:40:45;15.60;;;11.50;;
12725;SDS011;6427;49.754;6.106;2022-08-19T00:43:13;12.37;;;10.63;;
12725;SDS011;6427;49.754;6.106;2022-08-19T00:45:41;16.50;;;11.50;;
12725;SDS011;6427;49.754;6.106;2022-08-19T00:48:09;12.33;;;10.90;;
12725;SDS011;6427;49.754;6.106;2022-08-19T00:50:37;13.20;;;10.90;;
12725;SDS011;6427;49.754;6.106;2022-08-19T00:53:04;13.30;;;11.33;;
12725;SDS011;6427;49.754;6.106;2022-08-19T00:55:32;12.77;;;11.43;;
12725;SDS011;6427;49.754;6.106;2022-08-19T00:58:00;15.70;;;14.10;;
12725;SDS011;6427;49.754;6.106;2022-08-19T01:00:28;13.60;;;12.10;;
12725;SDS011;6427;49.754;6.106;2022-08-19T01:02:55;15.60;;;12.60;;
12725;SDS011;6427;49.754;6.106;2022-08-19T01:05:24;14.33;;;11.60;;
12725;SDS011;6427;49.754;6.106;2022-08-19T01:07:50;15.48;;;13.57;;
12725;SDS011;6427;49.754;6.106;2022-08-19T01:10:19;13.77;;;12.37;;
12725;SDS011;6427;49.754;6.106;2022-08-19T01:12:46;13.60;;;11.40;;
12725;SDS011;6427;49.754;6.106;2022-08-19T01:15:14;12.50;;;10.80;;
12725;SDS011;6427;49.754;6.106;2022-08-19T01:17:41;12.87;;;11.57;;
12725;SDS011;6427;49.754;6.106;2022-08-19T01:20:16;15.07;;;11.07;;
12725;SDS011;6427;49.754;6.106;2022-08-19T01:22:46;12.33;;;11.03;;
12725;SDS011;6427;49.754;6.106;2022-08-19T01:25:14;14.60;;;11.50;;
12725;SDS011;6427;49.754;6.106;2022-08-19T01:27:41;15.53;;;11.20;;
12725;SDS011;6427;49.754;6.106;2022-08-19T01:30:08;12.87;;;11.27;;
12725;SDS011;6427;49.754;6.106;2022-08-19T01:32:35;13.13;;;11.57;;
12725;SDS011;6427;49.754;6.106;2022-08-19T01:35:03;12.87;;;10.60;;
12725;SDS011;6427;49.754;6.106;2022-08-19T01:37:40;17.30;;;12.33;;
12725;SDS011;6427;49.754;6.106;2022-08-19T01:39:58;13.87;;;11.40;;
12725;SDS011;6427;49.754;6.106;2022-08-19T01:42:25;13.57;;;11.90;;
12725;SDS011;6427;49.754;6.106;2022-08-19T01:44:53;15.02;;;13.43;;
12725;SDS011;6427;49.754;6.106;2022-08-19T01:47:21;13.33;;;11.50;;
12725;SDS011;6427;49.754;6.106;2022-08-19T01:49:49;15.07;;;12.07;;
12725;SDS011;6427;49.754;6.106;2022-08-19T01:52:17;13.80;;;11.27;;
12725;SDS011;6427;49.754;6.106;2022-08-19T01:54:45;15.10;;;13.60;;
12725;SDS011;6427;49.754;6.106;2022-08-19T01:57:12;13.97;;;11.80;;
12725;SDS011;6427;49.754;6.106;2022-08-19T01:59:41;13.27;;;11.97;;
12725;SDS011;6427;49.754;6.106;2022-08-19T02:02:08;13.73;;;12.30;;
12725;SDS011;6427;49.754;6.106;2022-08-19T02:04:36;14.67;;;11.37;;
12725;SDS011;6427;49.754;6.106;2022-08-19T02:07:06;13.53;;;12.13;;
12725;SDS011;6427;49.754;6.106;2022-08-19T02:09:34;14.33;;;12.80;;
12725;SDS011;6427;49.754;6.106;2022-08-19T02:12:03;15.13;;;13.60;;
12725;SDS011;6427;49.754;6.106;2022-08-19T02:14:29;13.47;;;12.07;;
12725;SDS011;6427;49.754;6.106;2022-08-19T02:16:58;13.23;;;11.83;;
12725;SDS011;6427;49.754;6.106;2022-08-19T02:19:26;13.27;;;11.60;;
12725;SDS011;6427;49.754;6.106;2022-08-19T02:21:53;17.57;;;12.00;;
12725;SDS011;6427;49.754;6.106;2022-08-19T02:24:21;12.57;;;11.20;;
12725;SDS011;6427;49.754;6.106;2022-08-19T02:26:49;14.70;;;11.83;;
12725;SDS011;6427;49.754;6.106;2022-08-19T02:29:16;14.53;;;11.47;;
12725;SDS011;6427;49.754;6.106;2022-08-19T02:31:44;15.98;;;14.38;;
12725;SDS011;6427;49.754;6.106;2022-08-19T02:34:11;14.87;;;12.80;;
12725;SDS011;6427;49.754;6.106;2022-08-19T02:36:39;14.33;;;12.33;;
12725;SDS011;6427;49.754;6.106;2022-08-19T02:39:07;14.57;;;12.63;;
12725;SDS011;6427;49.754;6.106;2022-08-19T02:41:34;14.47;;;12.97;;
12725;SDS011;6427;49.754;6.106;2022-08-19T02:44:02;15.63;;;13.27;;
12725;SDS011;6427;49.754;6.106;2022-08-19T02:46:30;14.73;;;12.00;;
12725;SDS011;6427;49.754;6.106;2022-08-19T02:48:58;15.13;;;12.63;;
12725;SDS011;6427;49.754;6.106;2022-08-19T02:51:28;18.58;;;16.58;;
12725;SDS011;6427;49.754;6.106;2022-08-19T02:53:55;17.45;;;15.55;;
12725;SDS011;6427;49.754;6.106;2022-08-19T02:56:23;14.77;;;13.03;;
12725;SDS011;6427;49.754;6.106;2022-08-19T02:58:50;17.90;;;13.67;;
12725;SDS011;6427;49.754;6.106;2022-08-19T03:01:20;18.65;;;16.55;;
12725;SDS011;6427;49.754;6.106;2022-08-19T03:03:49;16.97;;;14.73;;
12725;SDS011;6427;49.754;6.106;2022-08-19T03:06:17;17.37;;;13.53;;
12725;SDS011;6427;49.754;6.106;2022-08-19T03:08:45;17.90;;;16.00;;
12725;SDS011;6427;49.754;6.106;2022-08-19T03:11:13;15.07;;;13.33;;
12725;SDS011;6427;49.754;6.106;2022-08-19T03:13:43;14.57;;;12.43;;
12725;SDS011;6427;49.754;6.106;2022-08-19T03:16:11;17.03;;;13.43;;
12725;SDS011;6427;49.754;6.106;2022-08-19T03:18:38;17.70;;;13.83;;
12725;SDS011;6427;49.754;6.106;2022-08-19T03:21:06;15.47;;;13.77;;
12725;SDS011;6427;49.754;6.106;2022-08-19T03:23:33;14.93;;;13.00;;
12725;SDS011;6427;49.754;6.106;2022-08-19T03:26:04;17.57;;;14.00;;
12725;SDS011;6427;49.754;6.106;2022-08-19T03:28:32;17.13;;;14.40;;
12725;SDS011;6427;49.754;6.106;2022-08-19T03:31:02;15.80;;;13.70;;
12725;SDS011;6427;49.754;6.106;2022-08-19T03:33:31;17.00;;;13.80;;
12725;SDS011;6427;49.754;6.106;2022-08-19T03:36:11;17.77;;;15.43;;
12725;SDS011;6427;49.754;6.106;2022-08-19T03:38:38;17.37;;;13.83;;
12725;SDS011;6427;49.754;6.106;2022-08-19T03:41:06;17.83;;;12.87;;
12725;SDS011;6427;49.754;6.106;2022-08-19T03:43:33;17.50;;;13.97;;
12725;SDS011;6427;49.754;6.106;2022-08-19T03:46:02;15.67;;;13.07;;
12725;SDS011;6427;49.754;6.106;2022-08-19T03:48:28;16.40;;;13.77;;
12725;SDS011;6427;49.754;6.106;2022-08-19T03:50:56;15.97;;;13.60;;
12725;SDS011;6427;49.754;6.106;2022-08-19T03:53:23;15.50;;;13.23;;
12725;SDS011;6427;49.754;6.106;2022-08-19T03:55:51;16.63;;;13.87;;
12725;SDS011;6427;49.754;6.106;2022-08-19T03:58:18;19.40;;;16.50;;
12725;SDS011;6427;49.754;6.106;2022-08-19T04:00:46;21.47;;;14.97;;
12725;SDS011;6427;49.754;6.106;2022-08-19T04:03:14;16.83;;;13.47;;
12725;SDS011;6427;49.754;6.106;2022-08-19T04:05:43;18.70;;;13.13;;
12725;SDS011;6427;49.754;6.106;2022-08-19T04:08:10;16.87;;;13.53;;
12725;SDS011;6427;49.754;6.106;2022-08-19T04:10:39;16.60;;;14.10;;
12725;SDS011;6427;49.754;6.106;2022-08-19T04:13:06;16.07;;;13.60;;
12725;SDS011;6427;49.754;6.106;2022-08-19T04:15:38;15.37;;;13.60;;
12725;SDS011;6427;49.754;6.106;2022-08-19T04:18:02;16.60;;;13.53;;
12725;SDS011;6427;49.754;6.106;2022-08-19T04:20:29;18.17;;;12.80;;
12725;SDS011;6427;49.754;6.106;2022-08-19T04:22:57;16.97;;;13.67;;
12725;SDS011;6427;49.754;6.106;2022-08-19T04:25:24;16.27;;;13.93;;
12725;SDS011;6427;49.754;6.106;2022-08-19T04:27:52;18.83;;;13.77;;
12725;SDS011;6427;49.754;6.106;2022-08-19T04:30:20;19.33;;;14.13;;
12725;SDS011;6427;49.754;6.106;2022-08-19T04:32:47;17.23;;;14.20;;
12725;SDS011;6427;49.754;6.106;2022-08-19T04:35:15;16.10;;;14.03;;
12725;SDS011;6427;49.754;6.106;2022-08-19T04:37:42;16.47;;;14.47;;
12725;SDS011;6427;49.754;6.106;2022-08-19T04:40:10;17.43;;;14.37;;
12725;SDS011;6427;49.754;6.106;2022-08-19T04:42:56;18.87;;;15.50;;
12725;SDS011;6427;49.754;6.106;2022-08-19T04:45:24;18.00;;;15.30;;
12725;SDS011;6427;49.754;6.106;2022-08-19T04:47:54;21.80;;;16.67;;
12725;SDS011;6427;49.754;6.106;2022-08-19T04:50:20;18.50;;;15.10;;
12725;SDS011;6427;49.754;6.106;2022-08-19T04:52:50;18.20;;;14.77;;
12725;SDS011;6427;49.754;6.106;2022-08-19T04:55:15;19.43;;;14.77;;
12725;SDS011;6427;49.754;6.106;2022-08-19T04:57:44;17.13;;;14.00;;
12725;SDS011;6427;49.754;6.106;2022-08-19T05:00:11;20.37;;;18.23;;
12725;SDS011;6427;49.754;6.106;2022-08-19T05:02:39;18.20;;;15.07;;
12725;SDS011;6427;49.754;6.106;2022-08-19T05:05:06;19.07;;;15.63;;
12725;SDS011;6427;49.754;6.106;2022-08-19T05:07:34;20.02;;;17.92;;
12725;SDS011;6427;49.754;6.106;2022-08-19T05:10:03;19.27;;;15.93;;
12725;SDS011;6427;49.754;6.106;2022-08-19T05:12:30;17.50;;;14.63;;
12725;SDS011;6427;49.754;6.106;2022-08-19T05:14:58;16.67;;;14.10;;
12725;SDS011;6427;49.754;6.106;2022-08-19T05:17:26;15.83;;;13.60;;
12725;SDS011;6427;49.754;6.106;2022-08-19T05:19:54;17.07;;;14.03;;
12725;SDS011;6427;49.754;6.106;2022-08-19T05:22:40;14.57;;;12.90;;
12725;SDS011;6427;49.754;6.106;2022-08-19T05:25:08;17.83;;;14.40;;
12725;SDS011;6427;49.754;6.106;2022-08-19T05:27:34;15.50;;;13.80;;
12725;SDS011;6427;49.754;6.106;2022-08-19T05:30:02;18.27;;;14.23;;
12725;SDS011;6427;49.754;6.106;2022-08-19T05:32:30;18.57;;;15.70;;
12725;SDS011;6427;49.754;6.106;2022-08-19T05:34:57;20.80;;;16.37;;
12725;SDS011;6427;49.754;6.106;2022-08-19T05:37:25;17.37;;;14.67;;
12725;SDS011;6427;49.754;6.106;2022-08-19T05:39:53;19.45;;;17.30;;
12725;SDS011;6427;49.754;6.106;2022-08-19T05:42:20;18.57;;;16.13;;
12725;SDS011;6427;49.754;6.106;2022-08-19T05:44:48;20.73;;;16.13;;
12725;SDS011;6427;49.754;6.106;2022-08-19T05:47:16;19.73;;;15.33;;
12725;SDS011;6427;49.754;6.106;2022-08-19T05:49:44;21.33;;;16.07;;
12725;SDS011;6427;49.754;6.106;2022-08-19T05:52:12;19.77;;;15.47;;
12725;SDS011;6427;49.754;6.106;2022-08-19T05:54:39;18.17;;;15.20;;
12725;SDS011;6427;49.754;6.106;2022-08-19T05:57:07;21.77;;;18.87;;
12725;SDS011;6427;49.754;6.106;2022-08-19T05:59:35;20.50;;;18.33;;
12725;SDS011;6427;49.754;6.106;2022-08-19T06:02:04;20.50;;;15.43;;
12725;SDS011;6427;49.754;6.106;2022-08-19T06:04:31;19.50;;;15.43;;
12725;SDS011;6427;49.754;6.106;2022-08-19T06:06:59;24.83;;;20.20;;
12725;SDS011;6427;49.754;6.106;2022-08-19T06:09:27;21.80;;;17.33;;
12725;SDS011;6427;49.754;6.106;2022-08-19T06:11:55;20.00;;;17.23;;
12725;SDS011;6427;49.754;6.106;2022-08-19T06:14:24;20.70;;;16.87;;
12725;SDS011;6427;49.754;6.106;2022-08-19T06:16:50;18.57;;;16.27;;
12725;SDS011;6427;49.754;6.106;2022-08-19T06:19:20;21.73;;;17.63;;
12725;SDS011;6427;49.754;6.106;2022-08-19T06:21:47;23.53;;;17.90;;
12725;SDS011;6427;49.754;6.106;2022-08-19T06:24:17;19.13;;;16.93;;
12725;SDS011;6427;49.754;6.106;2022-08-19T06:26:43;20.50;;;17.57;;
12725;SDS011;6427;49.754;6.106;2022-08-19T06:29:11;20.43;;;17.20;;
12725;SDS011;6427;49.754;6.106;2022-08-19T06:31:40;20.83;;;16.60;;
12725;SDS011;6427;49.754;6.106;2022-08-19T06:34:06;22.83;;;17.07;;
12725;SDS011;6427;49.754;6.106;2022-08-19T06:36:34;24.20;;;17.03;;
12725;SDS011;6427;49.754;6.106;2022-08-19T06:39:06;20.90;;;17.10;;
12725;SDS011;6427;49.754;6.106;2022-08-19T06:41:29;21.20;;;17.73;;
12725;SDS011;6427;49.754;6.106;2022-08-19T06:43:56;25.33;;;19.03;;
12725;SDS011;6427;49.754;6.106;2022-08-19T06:46:25;22.87;;;18.07;;
12725;SDS011;6427;49.754;6.106;2022-08-19T06:48:53;22.13;;;18.33;;
12725;SDS011;6427;49.754;6.106;2022-08-19T06:51:21;22.73;;;18.70;;
12725;SDS011;6427;49.754;6.106;2022-08-19T06:53:50;23.53;;;18.20;;
12725;SDS011;6427;49.754;6.106;2022-08-19T06:56:18;21.83;;;17.67;;
12725;SDS011;6427;49.754;6.106;2022-08-19T06:58:45;22.53;;;17.83;;
12725;SDS011;6427;49.754;6.106;2022-08-19T07:01:13;25.47;;;18.63;;
12725;SDS011;6427;49.754;6.106;2022-08-19T07:03:40;24.93;;;19.97;;
12725;SDS011;6427;49.754;6.106;2022-08-19T07:06:09;25.43;;;19.77;;
12725;SDS011;6427;49.754;6.106;2022-08-19T07:08:36;27.53;;;21.30;;
12725;SDS011;6427;49.754;6.106;2022-08-19T07:11:07;26.43;;;20.57;;
12725;SDS011;6427;49.754;6.106;2022-08-19T07:13:34;30.17;;;22.20;;
12725;SDS011;6427;49.754;6.106;2022-08-19T07:16:09;29.27;;;22.53;;
12725;SDS011;6427;49.754;6.106;2022-08-19T07:18:35;31.30;;;24.03;;
12725;SDS011;6427;49.754;6.106;2022-08-19T07:21:08;27.87;;;23.77;;
12725;SDS011;6427;49.754;6.106;2022-08-19T07:23:40;29.13;;;23.27;;
12725;SDS011;6427;49.754;6.106;2022-08-19T07:26:08;28.90;;;24.37;;
12725;SDS011;6427;49.754;6.106;2022-08-19T07:28:35;29.60;;;23.97;;
12725;SDS011;6427;49.754;6.106;2022-08-19T07:31:03;31.93;;;26.87;;
12725;SDS011;6427;49.754;6.106;2022-08-19T07:33:31;31.23;;;26.00;;
12725;SDS011;6427;49.754;6.106;2022-08-19T07:35:59;29.60;;;24.07;;
12725;SDS011;6427;49.754;6.106;2022-08-19T07:38:27;29.07;;;23.73;;
12725;SDS011;6427;49.754;6.106;2022-08-19T07:40:55;29.17;;;23.97;;
12725;SDS011;6427;49.754;6.106;2022-08-19T07:43:22;29.50;;;24.10;;
12725;SDS011;6427;49.754;6.106;2022-08-19T07:45:53;28.63;;;23.67;;
12725;SDS011;6427;49.754;6.106;2022-08-19T07:48:21;30.90;;;23.77;;
12725;SDS011;6427;49.754;6.106;2022-08-19T07:50:48;29.23;;;23.33;;
12725;SDS011;6427;49.754;6.106;2022-08-19T07:53:16;28.20;;;23.77;;
12725;SDS011;6427;49.754;6.106;2022-08-19T07:55:43;31.10;;;23.33;;
12725;SDS011;6427;49.754;6.106;2022-08-19T07:58:12;27.62;;;24.73;;
12725;SDS011;6427;49.754;6.106;2022-08-19T08:00:41;28.40;;;22.53;;
12725;SDS011;6427;49.754;6.106;2022-08-19T08:03:08;25.33;;;20.53;;
12725;SDS011;6427;49.754;6.106;2022-08-19T08:05:35;28.93;;;21.00;;
12725;SDS011;6427;49.754;6.106;2022-08-19T08:08:22;25.63;;;22.00;;
12725;SDS011;6427;49.754;6.106;2022-08-19T08:11:09;23.70;;;20.07;;
12725;SDS011;6427;49.754;6.106;2022-08-19T08:13:36;24.33;;;20.00;;
12725;SDS011;6427;49.754;6.106;2022-08-19T08:16:04;22.10;;;18.70;;
12725;SDS011;6427;49.754;6.106;2022-08-19T08:18:31;24.20;;;20.85;;
12725;SDS011;6427;49.754;6.106;2022-08-19T08:20:59;23.58;;;20.92;;
12725;SDS011;6427;49.754;6.106;2022-08-19T08:23:27;24.43;;;20.60;;
12725;SDS011;6427;49.754;6.106;2022-08-19T08:25:57;22.77;;;18.70;;
12725;SDS011;6427;49.754;6.106;2022-08-19T08:28:24;27.70;;;20.83;;
12725;SDS011;6427;49.754;6.106;2022-08-19T08:30:51;24.80;;;19.97;;
12725;SDS011;6427;49.754;6.106;2022-08-19T08:33:19;25.63;;;21.53;;
12725;SDS011;6427;49.754;6.106;2022-08-19T08:35:46;23.40;;;20.93;;
12725;SDS011;6427;49.754;6.106;2022-08-19T08:38:14;19.97;;;17.90;;
12725;SDS011;6427;49.754;6.106;2022-08-19T08:43:21;22.63;;;20.17;;
12725;SDS011;6427;49.754;6.106;2022-08-19T08:46:06;23.57;;;20.03;;
12725;SDS011;6427;49.754;6.106;2022-08-19T08:48:37;23.37;;;19.20;;
12725;SDS011;6427;49.754;6.106;2022-08-19T08:51:10;21.97;;;18.83;;
12725;SDS011;6427;49.754;6.106;2022-08-19T08:53:36;22.98;;;20.58;;
12725;SDS011;6427;49.754;6.106;2022-08-19T08:56:04;19.83;;;17.73;;
12725;SDS011;6427;49.754;6.106;2022-08-19T08:58:36;25.02;;;22.42;;
12725;SDS011;6427;49.754;6.106;2022-08-19T09:01:14;22.97;;;19.93;;
12725;SDS011;6427;49.754;6.106;2022-08-19T09:03:42;24.00;;;19.50;;
12725;SDS011;6427;49.754;6.106;2022-08-19T09:08:47;23.80;;;18.67;;
12725;SDS011;6427;49.754;6.106;2022-08-19T09:11:18;22.70;;;19.40;;
12725;SDS011;6427;49.754;6.106;2022-08-19T09:14:10;24.37;;;19.73;;
12725;SDS011;6427;49.754;6.106;2022-08-19T09:16:38;23.67;;;17.87;;
12725;SDS011;6427;49.754;6.106;2022-08-19T09:19:07;21.47;;;16.53;;
12725;SDS011;6427;49.754;6.106;2022-08-19T09:21:35;20.87;;;17.03;;
12725;SDS011;6427;49.754;6.106;2022-08-19T09:24:03;22.00;;;17.70;;
12725;SDS011;6427;49.754;6.106;2022-08-19T09:26:32;20.23;;;17.77;;
12725;SDS011;6427;49.754;6.106;2022-08-19T09:28:59;18.80;;;16.40;;
12725;SDS011;6427;49.754;6.106;2022-08-19T09:31:27;23.23;;;17.50;;
12725;SDS011;6427;49.754;6.106;2022-08-19T09:33:54;16.93;;;15.13;;
12725;SDS011;6427;49.754;6.106;2022-08-19T09:36:22;20.23;;;16.83;;
12725;SDS011;6427;49.754;6.106;2022-08-19T09:38:49;17.90;;;15.20;;
12725;SDS011;6427;49.754;6.106;2022-08-19T09:41:19;21.23;;;17.00;;
12725;SDS011;6427;49.754;6.106;2022-08-19T09:43:46;20.10;;;17.10;;
12725;SDS011;6427;49.754;6.106;2022-08-19T09:46:13;18.60;;;16.27;;
12725;SDS011;6427;49.754;6.106;2022-08-19T09:48:41;18.30;;;16.30;;
12725;SDS011;6427;49.754;6.106;2022-08-19T09:51:10;21.47;;;17.73;;
12725;SDS011;6427;49.754;6.106;2022-08-19T09:53:37;19.77;;;16.60;;
12725;SDS011;6427;49.754;6.106;2022-08-19T09:56:05;19.27;;;17.07;;
12725;SDS011;6427;49.754;6.106;2022-08-19T09:58:32;21.30;;;16.90;;
12725;SDS011;6427;49.754;6.106;2022-08-19T10:01:00;17.87;;;15.97;;
12725;SDS011;6427;49.754;6.106;2022-08-19T10:03:29;17.50;;;15.60;;
12725;SDS011;6427;49.754;6.106;2022-08-19T10:05:57;18.70;;;15.23;;
12725;SDS011;6427;49.754;6.106;2022-08-19T10:08:24;19.30;;;16.63;;
12725;SDS011;6427;49.754;6.106;2022-08-19T10:10:51;20.20;;;17.50;;
12725;SDS011;6427;49.754;6.106;2022-08-19T10:13:20;23.40;;;20.23;;
12725;SDS011;6427;49.754;6.106;2022-08-19T10:15:46;20.03;;;16.87;;
12725;SDS011;6427;49.754;6.106;2022-08-19T10:18:14;20.10;;;17.63;;
12725;SDS011;6427;49.754;6.106;2022-08-19T10:20:41;16.33;;;14.43;;
12725;SDS011;6427;49.754;6.106;2022-08-19T10:23:09;17.17;;;15.37;;
12725;SDS011;6427;49.754;6.106;2022-08-19T10:25:37;18.27;;;15.80;;
12725;SDS011;6427;49.754;6.106;2022-08-19T10:28:04;18.50;;;16.25;;
12725;SDS011;6427;49.754;6.106;2022-08-19T10:30:32;16.00;;;14.30;;
12725;SDS011;6427;49.754;6.106;2022-08-19T10:32:59;19.03;;;15.23;;
12725;SDS011;6427;49.754;6.106;2022-08-19T10:35:27;15.53;;;13.87;;
12725;SDS011;6427;49.754;6.106;2022-08-19T10:37:55;21.13;;;16.47;;
12725;SDS011;6427;49.754;6.106;2022-08-19T10:40:22;19.30;;;15.53;;
12725;SDS011;6427;49.754;6.106;2022-08-19T10:42:50;17.23;;;13.60;;
12725;SDS011;6427;49.754;6.106;2022-08-19T10:45:17;18.87;;;13.97;;
12725;SDS011;6427;49.754;6.106;2022-08-19T10:47:45;18.00;;;15.37;;
12725;SDS011;6427;49.754;6.106;2022-08-19T10:50:13;20.60;;;16.97;;
12725;SDS011;6427;49.754;6.106;2022-08-19T10:53:02;18.70;;;15.63;;
12725;SDS011;6427;49.754;6.106;2022-08-19T10:55:27;20.07;;;15.40;;
12725;SDS011;6427;49.754;6.106;2022-08-19T10:58:13;20.87;;;15.97;;
12725;SDS011;6427;49.754;6.106;2022-08-19T11:00:40;19.63;;;15.77;;
12725;SDS011;6427;49.754;6.106;2022-08-19T11:03:07;20.37;;;14.37;;
12725;SDS011;6427;49.754;6.106;2022-08-19T11:05:35;17.33;;;13.07;;
12725;SDS011;6427;49.754;6.106;2022-08-19T11:08:02;20.40;;;16.67;;
12725;SDS011;6427;49.754;6.106;2022-08-19T11:10:31;14.77;;;13.27;;
12725;SDS011;6427;49.754;6.106;2022-08-19T11:12:58;12.50;;;10.77;;
12725;SDS011;6427;49.754;6.106;2022-08-19T11:15:27;16.77;;;14.50;;
12725;SDS011;6427;49.754;6.106;2022-08-19T11:17:54;16.80;;;15.00;;
12725;SDS011;6427;49.754;6.106;2022-08-19T11:20:22;16.07;;;14.33;;
12725;SDS011;6427;49.754;6.106;2022-08-19T11:22:51;13.53;;;11.00;;
12725;SDS011;6427;49.754;6.106;2022-08-19T11:25:18;11.30;;;8.97;;
12725;SDS011;6427;49.754;6.106;2022-08-19T11:27:45;11.37;;;8.73;;
12725;SDS011;6427;49.754;6.106;2022-08-19T11:30:13;7.83;;;7.10;;
12725;SDS011;6427;49.754;6.106;2022-08-19T11:32:41;8.83;;;7.77;;
12725;SDS011;6427;49.754;6.106;2022-08-19T11:35:09;11.63;;;8.43;;
12725;SDS011;6427;49.754;6.106;2022-08-19T11:37:37;9.93;;;8.88;;
12725;SDS011;6427;49.754;6.106;2022-08-19T11:40:05;12.13;;;9.83;;
12725;SDS011;6427;49.754;6.106;2022-08-19T11:42:32;10.67;;;8.40;;
12725;SDS011;6427;49.754;6.106;2022-08-19T11:45:18;11.77;;;9.00;;
12725;SDS011;6427;49.754;6.106;2022-08-19T11:47:47;11.02;;;9.25;;
12725;SDS011;6427;49.754;6.106;2022-08-19T11:50:15;9.73;;;8.70;;
12725;SDS011;6427;49.754;6.106;2022-08-19T11:52:42;8.27;;;7.43;;
12725;SDS011;6427;49.754;6.106;2022-08-19T11:55:10;10.03;;;7.77;;
12725;SDS011;6427;49.754;6.106;2022-08-19T11:57:38;11.07;;;8.43;;
12725;SDS011;6427;49.754;6.106;2022-08-19T12:00:05;9.37;;;7.93;;
12725;SDS011;6427;49.754;6.106;2022-08-19T12:02:33;11.10;;;8.07;;
12725;SDS011;6427;49.754;6.106;2022-08-19T12:05:01;6.60;;;6.00;;
12725;SDS011;6427;49.754;6.106;2022-08-19T12:07:28;9.50;;;6.17;;
12725;SDS011;6427;49.754;6.106;2022-08-19T12:09:56;7.10;;;6.30;;
12725;SDS011;6427;49.754;6.106;2022-08-19T12:12:24;9.30;;;7.40;;
12725;SDS011;6427;49.754;6.106;2022-08-19T12:14:52;8.67;;;6.63;;
12725;SDS011;6427;49.754;6.106;2022-08-19T12:17:19;8.20;;;7.13;;
12725;SDS011;6427;49.754;6.106;2022-08-19T12:19:47;9.10;;;6.33;;
12725;SDS011;6427;49.754;6.106;2022-08-19T12:22:14;12.70;;;8.03;;
12725;SDS011;6427;49.754;6.106;2022-08-19T12:24:42;13.27;;;9.43;;
12725;SDS011;6427;49.754;6.106;2022-08-19T12:27:10;11.93;;;7.97;;
12725;SDS011;6427;49.754;6.106;2022-08-19T12:29:37;13.83;;;7.97;;
12725;SDS011;6427;49.754;6.106;2022-08-19T12:32:05;10.30;;;7.53;;
12725;SDS011;6427;49.754;6.106;2022-08-19T12:34:32;10.15;;;7.32;;
12725;SDS011;6427;49.754;6.106;2022-08-19T12:37:02;10.37;;;8.03;;
12725;SDS011;6427;49.754;6.106;2022-08-19T12:39:28;9.53;;;7.33;;
12725;SDS011;6427;49.754;6.106;2022-08-19T12:41:57;8.00;;;6.13;;
12725;SDS011;6427;49.754;6.106;2022-08-19T12:44:24;6.47;;;5.77;;
12725;SDS011;6427;49.754;6.106;2022-08-19T12:46:53;7.07;;;5.20;;
12725;SDS011;6427;49.754;6.106;2022-08-19T12:49:20;6.77;;;5.57;;
12725;SDS011;6427;49.754;6.106;2022-08-19T12:51:48;9.83;;;5.20;;
12725;SDS011;6427;49.754;6.106;2022-08-19T12:54:15;6.32;;;5.07;;
12725;SDS011;6427;49.754;6.106;2022-08-19T12:56:43;6.43;;;5.00;;
12725;SDS011;6427;49.754;6.106;2022-08-19T12:59:11;5.40;;;4.90;;
12725;SDS011;6427;49.754;6.106;2022-08-19T13:01:38;5.17;;;4.40;;
12725;SDS011;6427;49.754;6.106;2022-08-19T13:04:06;4.90;;;3.77;;
12725;SDS011;6427;49.754;6.106;2022-08-19T13:06:33;5.13;;;3.43;;
12725;SDS011;6427;49.754;6.106;2022-08-19T13:09:01;5.43;;;2.90;;
12725;SDS011;6427;49.754;6.106;2022-08-19T13:11:29;3.57;;;2.60;;
12725;SDS011;6427;49.754;6.106;2022-08-19T13:13:56;3.20;;;2.87;;
12725;SDS011;6427;49.754;6.106;2022-08-19T13:16:24;2.90;;;2.60;;
12725;SDS011;6427;49.754;6.106;2022-08-19T13:18:51;2.30;;;2.10;;
12725;SDS011;6427;49.754;6.106;2022-08-19T13:21:21;2.87;;;2.63;;
12725;SDS011;6427;49.754;6.106;2022-08-19T13:23:47;2.63;;;2.43;;
12725;SDS011;6427;49.754;6.106;2022-08-19T13:26:15;2.27;;;2.07;;
12725;SDS011;6427;49.754;6.106;2022-08-19T13:28:43;3.23;;;1.80;;
12725;SDS011;6427;49.754;6.106;2022-08-19T13:31:29;2.20;;;1.90;;
12725;SDS011;6427;49.754;6.106;2022-08-19T13:34:14;2.20;;;2.00;;
12725;SDS011;6427;49.754;6.106;2022-08-19T13:36:41;2.78;;;2.08;;
12725;SDS011;6427;49.754;6.106;2022-08-19T13:39:09;2.57;;;1.73;;
12725;SDS011;6427;49.754;6.106;2022-08-19T13:41:36;1.80;;;1.70;;
12725;SDS011;6427;49.754;6.106;2022-08-19T13:44:05;1.70;;;1.60;;
12725;SDS011;6427;49.754;6.106;2022-08-19T13:46:32;1.30;;;1.20;;
12725;SDS011;6427;49.754;6.106;2022-08-19T13:49:00;1.70;;;1.40;;
12725;SDS011;6427;49.754;6.106;2022-08-19T13:51:27;1.20;;;1.10;;
12725;SDS011;6427;49.754;6.106;2022-08-19T13:53:55;0.70;;;0.70;;
12725;SDS011;6427;49.754;6.106;2022-08-19T13:56:22;2.70;;;0.87;;
12725;SDS011;6427;49.754;6.106;2022-08-19T13:58:50;0.67;;;0.67;;
12725;SDS011;6427;49.754;6.106;2022-08-19T14:01:21;2.10;;;0.60;;
12725;SDS011;6427;49.754;6.106;2022-08-19T14:03:49;0.70;;;0.67;;
12725;SDS011;6427;49.754;6.106;2022-08-19T14:06:16;1.87;;;0.70;;
12725;SDS011;6427;49.754;6.106;2022-08-19T14:08:44;2.25;;;0.70;;
12725;SDS011;6427;49.754;6.106;2022-08-19T14:11:11;0.80;;;0.80;;
12725;SDS011;6427;49.754;6.106;2022-08-19T14:13:40;2.03;;;0.80;;
12725;SDS011;6427;49.754;6.106;2022-08-19T14:16:08;0.70;;;0.70;;
12725;SDS011;6427;49.754;6.106;2022-08-19T14:18:35;0.80;;;0.80;;
12725;SDS011;6427;49.754;6.106;2022-08-19T14:21:03;0.70;;;0.70;;
12725;SDS011;6427;49.754;6.106;2022-08-19T14:23:31;1.17;;;0.63;;
12725;SDS011;6427;49.754;6.106;2022-08-19T14:26:07;2.20;;;0.70;;
12725;SDS011;6427;49.754;6.106;2022-08-19T14:28:33;1.70;;;0.70;;
12725;SDS011;6427;49.754;6.106;2022-08-19T14:31:01;0.50;;;0.50;;
12725;SDS011;6427;49.754;6.106;2022-08-19T14:33:28;0.97;;;0.60;;
12725;SDS011;6427;49.754;6.106;2022-08-19T14:35:56;12.40;;;0.97;;
12725;SDS011;6427;49.754;6.106;2022-08-19T14:38:23;0.33;;;0.33;;
12725;SDS011;6427;49.754;6.106;2022-08-19T14:40:51;1.33;;;0.40;;
12725;SDS011;6427;49.754;6.106;2022-08-19T14:43:18;0.60;;;0.37;;
12725;SDS011;6427;49.754;6.106;2022-08-19T14:45:46;0.97;;;0.50;;
12725;SDS011;6427;49.754;6.106;2022-08-19T14:48:14;1.30;;;0.68;;
12725;SDS011;6427;49.754;6.106;2022-08-19T14:50:42;0.40;;;0.40;;
12725;SDS011;6427;49.754;6.106;2022-08-19T14:53:10;0.80;;;0.70;;